La Marsa, Tunisia
Current Conditions -  °F | °C
As of 1:00 AM on Thursday 29 Jan 2015 (Local Time) from DTTA Reporting Station
Few Clouds Few Clouds  
Wind Chill: 45°   Ceiling: Unl
Heat Index: 48°   Visibility: 6mi
Dew Point: 41°   Wind: 7mph
Humidity: 76%   Direction: 280°W
Pressure: 29.97"   Gusts: NA
Location:  36.88°N, 10.33°E
Report Text: DTTA 290000Z 28006KT 250V320 9999 FEW023 09/05 Q1015 NOSIG
Loading
Personal Weather Stations






























Interactive Weather Map New forecast layout! Learn more

10-Day Weather Forecast

Advertisements
Track Severe Weather on mobile